Latest Coastal Weather Observations for Marion Reef

IDQ60701

Issued at 7:05 am EST Thursday 28 August 2014 (issued every 10 minutes, with the page automatically refreshed every 10 minutes)

About coastal observations | Map of coastal stations | Coastal observations for QLD | Marine services | Other Formats
Station Details ID: 200704 Name: MARION REEF Lat: -19.10 Lon: 152.39 Height: 2.0 m
Data from the previous 72 hours. | See also: Recent months for locations in Queensland
Date/Time
EST
Temp

°C
Wind Pressure Rain
since 9am
mm
Weather Cloud Vis
km
Sea
Height
m
Swell
Dir
 
Speed
knots
Gust
knots
hPa Trend Height
m
Period
s
Dir
28/07:00am 22.1 SSW 10 12 1016.5 - - - - - - - - -
28/06:30am 21.9 SSW 9 11 1016.2 - - - - - - - - -
28/06:00am 21.8 SSW 8 10 1015.9 - - - - - - - - -
28/05:30am 21.9 SSW 9 12 1015.7 - - - - - - - - -
28/05:00am 21.7 SSW 8 10 1015.4 - - - - - - - - -
28/04:30am 21.6 SSW 7 9 1015.4 - - - - - - - - -
28/04:00am 21.6 S 7 8 1015.4 - - - - - - - - -
28/03:30am 21.7 SSW 6 8 1015.5 - - - - - - - - -
28/03:00am 21.7 S 6 8 1015.5 - - - - - - - - -
28/02:30am 21.7 S 7 10 1015.9 - - - - - - - - -
28/02:00am 21.8 S 6 8 1016.0 - - - - - - - - -
28/01:30am 21.9 S 7 11 1016.2 - - - - - - - - -
28/01:00am 21.9 S 8 11 1016.3 - - - - - - - - -
28/12:30am 21.9 S 5 8 1016.6 - - - - - - - - -
28/12:00am 21.8 SSE 3 7 1016.5 - - - - - - - - -
 
Date/Time
EST
Temp

°C
Wind Pressure Rain
since 9am
mm
Weather Cloud Vis
km
Sea
Height
m
Swell
Dir
 
Speed
knots
Gust
knots
hPa Trend Height
m
Period
s
Dir
27/11:30pm 22.0 SSE 6 8 1017.0 - - - - - - - - -
27/11:00pm 22.2 SSE 6 7 1017.0 - - - - - - - - -
27/10:30pm 22.2 S 6 9 1017.3 - - - - - - - - -
27/10:00pm 22.2 SSE 8 9 1017.2 - - - - - - - - -
27/09:30pm 22.3 SSE 7 10 1017.2 - - - - - - - - -
27/09:00pm 22.3 SSE 8 11 1016.9 - - - - - - - - -
27/08:30pm 22.3 SE 8 10 1016.7 - - - - - - - - -
27/08:00pm 22.3 SSE 8 9 1016.4 - - - - - - - - -
27/07:30pm 22.4 SSE 8 10 1016.2 - - - - - - - - -
27/07:00pm 22.4 S 8 11 1015.6 - - - - - - - - -
27/06:30pm 22.4 SSE 8 11 1015.4 - - - - - - - - -
27/06:00pm 22.4 SSE 7 11 1014.9 - - - - - - - - -
27/05:30pm 22.4 SE 8 11 1014.6 - - - - - - - - -
27/05:00pm 22.5 SSE 9 10 1014.3 - - - - - - - - -
27/04:30pm 22.6 SSE 9 11 1014.1 - - - - - - - - -
27/04:00pm 22.6 S 10 13 1013.9 - - - - - - - - -
27/03:30pm 22.7 SSE 10 12 1014.0 - - - - - - - - -
27/03:00pm 22.8 SE 7 10 1013.6 - - - - - - - - -
27/02:30pm 22.6 SE 8 10 1013.7 - - - - - - - - -
27/02:00pm 22.6 SE 8 10 1013.9 - - - - - - - - -
27/01:30pm 22.7 SE 7 9 1014.4 - - - - - - - - -
27/01:00pm 22.6 ESE 7 8 1014.7 - - - - - - - - -
27/12:30pm 22.4 SE 7 10 1015.1 - - - - - - - - -
27/12:00pm 22.4 SE 7 9 1015.2 - - - - - - - - -
27/11:30am 22.4 SSE 8 10 1015.9 - - - - - - - - -
27/11:00am 22.2 SSE 8 9 1016.3 - - - - - - - - -
27/10:30am 22.1 SSE 7 9 1016.7 - - - - - - - - -
27/10:00am 22.1 SSE 8 11 1016.8 - - - - - - - - -
27/09:30am 22.0 SE 7 10 1017.1 - - - - - - - - -
27/09:00am 22.1 SSE 8 10 1016.9 - - - - - - - - -
27/08:30am 21.9 SSE 8 11 1016.9 - - - - - - - - -
27/08:00am 21.7 SSE 7 9 1016.5 - - - - - - - - -
27/07:30am 21.6 SSE 8 10 1016.3 - - - - - - - - -
27/07:00am 21.7 SSE 7 10 1015.8 - - - - - - - - -
27/06:30am 21.5 SSE 8 10 1015.6 - - - - - - - - -
27/06:00am 21.4 SSE 8 12 1015.3 - - - - - - - - -
27/05:30am 21.5 SSE 9 11 1015.0 - - - - - - - - -
27/05:00am 21.5 SSE 10 13 1014.7 - - - - - - - - -
27/04:30am 21.5 S 10 14 1014.5 - - - - - - - - -
27/04:00am 21.6 SSE 11 14 1014.4 - - - - - - - - -
27/03:30am 21.7 S 12 14 1014.3 - - - - - - - - -
27/03:00am 21.7 SSE 12 14 1014.2 - - - - - - - - -
27/02:30am 21.7 S 12 15 1014.6 - - - - - - - - -
27/02:00am 21.8 SSE 11 13 1014.6 - - - - - - - - -
27/01:30am 21.8 SSE 12 14 1015.0 - - - - - - - - -
27/01:00am 22.0 SSE 12 15 1015.1 - - - - - - - - -
27/12:30am 22.0 SSE 12 15 1015.4 - - - - - - - - -
27/12:00am 22.1 S 13 16 1015.5 - - - - - - - - -
 
Date/Time
EST
Temp

°C
Wind Pressure Rain
since 9am
mm
Weather Cloud Vis
km
Sea
Height
m
Swell
Dir
 
Speed
knots
Gust
knots
hPa Trend Height
m
Period
s
Dir
26/11:30pm 22.2 S 13 15 1016.0 - - - - - - - - -
26/11:00pm 22.2 S 13 16 1016.0 - - - - - - - - -
26/10:30pm 22.4 S 13 15 1016.0 - - - - - - - - -
26/10:00pm 22.3 S 14 17 1016.0 - - - - - - - - -
26/09:30pm 22.4 SSE 14 17 1016.2 - - - - - - - - -
26/09:00pm 22.5 SSE 14 18 1016.1 - - - - - - - - -
26/08:30pm 22.5 SSE 14 16 1016.0 - - - - - - - - -
26/08:00pm 22.7 SSE 14 16 1015.7 - - - - - - - - -
26/07:30pm 22.8 SSE 14 16 1015.6 - - - - - - - - -
26/07:00pm 22.7 SSE 14 16 1015.3 - - - - - - - - -
26/06:30pm 22.7 SSE 15 18 1015.0 - - - - - - - - -
26/06:00pm 22.7 SSE 15 18 1014.6 - - - - - - - - -
26/05:30pm 22.7 SSE 16 17 1014.4 - - - - - - - - -
26/05:00pm 22.7 SSE 17 19 1014.1 - - - - - - - - -
26/04:30pm 22.7 SSE 16 19 1013.7 - - - - - - - - -
26/04:00pm 22.7 SSE 17 21 1013.6 - - - - - - - - -
26/03:30pm 22.7 SSE 17 20 1013.7 - - - - - - - - -
26/03:00pm 22.7 SSE 17 19 1013.8 - - - - - - - - -
26/02:30pm 22.7 SSE 17 20 1013.7 - - - - - - - - -
26/02:00pm 22.6 SSE 17 21 1013.8 - - - - - - - - -
26/01:30pm 22.8 SSE 17 20 1014.0 - - - - - - - - -
26/01:00pm 22.8 SSE 19 22 1014.0 - - - - - - - - -
26/12:30pm 22.7 SSE 16 19 1014.9 - - - - - - - - -
26/12:00pm 22.9 SSE 17 21 1014.6 - - - - - - - - -
26/11:30am 22.7 SSE 17 20 1015.5 - - - - - - - - -
26/11:00am 22.8 SSE 18 21 1015.4 - - - - - - - - -
26/10:30am 23.1 SE 18 21 1016.1 - - - - - - - - -
26/10:00am 22.7 SSE 20 22 1015.5 - - - - - - - - -
26/09:30am 22.7 SSE 20 22 1016.0 - - - - - - - - -
26/09:00am 22.7 SSE 19 23 1016.0 - - - - - - - - -
26/08:30am 22.8 SSE 20 23 1015.7 - - - - - - - - -
26/08:00am 22.7 SSE 19 23 1015.5 - - - - - - - - -
26/07:30am 22.6 SSE 20 24 1015.4 - - - - - - - - -
26/07:00am 22.7 SSE 19 23 1015.0 - - - - - - - - -
26/06:30am 22.5 SSE 20 23 1014.8 - - - - - - - - -
26/06:00am 22.5 SSE 21 24 1014.1 - - - - - - - - -
26/05:30am 22.6 SSE 21 23 1014.1 - - - - - - - - -
26/05:00am 22.5 SSE 19 23 1013.8 - - - - - - - - -
26/04:30am 22.5 SSE 20 24 1014.0 - - - - - - - - -
26/04:00am 22.2 SSE 21 23 1013.7 - - - - - - - - -
26/03:30am 22.4 SSE 22 25 1014.0 - - - - - - - - -
26/03:00am 22.8 SSE 22 26 1013.9 - - - - - - - - -
26/02:30am 22.7 SSE 22 25 1014.5 - - - - - - - - -
26/02:00am 22.6 S 20 24 1014.3 - - - - - - - - -
26/01:30am 22.4 SSE 22 25 1014.4 - - - - - - - - -
26/01:00am 22.6 S 19 23 1015.0 - - - - - - - - -
26/12:30am 22.5 S 22 26 1014.9 - - - - - - - - -
26/12:00am 22.5 S 19 23 1015.3 - - - - - - - - -
 
Date/Time
EST
Temp

°C
Wind Pressure Rain
since 9am
mm
Weather Cloud Vis
km
Sea
Height
m
Swell
Dir
 
Speed
knots
Gust
knots
hPa Trend Height
m
Period
s
Dir
25/11:30pm 22.6 S 19 22 1016.0 - - - - - - - - -
25/11:00pm 22.5 S 19 24 1016.1 - - - - - - - - -
25/10:30pm 22.3 S 18 21 1016.6 - - - - - - - - -
25/10:00pm 22.1 S 20 23 1016.6 - - - - - - - - -
25/09:30pm 22.0 S 20 24 1016.8 - - - - - - - - -
25/09:00pm 22.1 S 20 23 1016.7 - - - - - - - - -
25/08:30pm 22.1 S 20 23 1016.5 - - - - - - - - -
25/08:00pm 22.0 S 20 24 1016.4 - - - - - - - - -
25/07:30pm 22.0 S 21 25 1016.3 - - - - - - - - -
25/07:00pm 22.2 S 22 25 1015.6 - - - - - - - - -
25/06:30pm 22.1 S 21 24 1015.6 - - - - - - - - -
25/06:00pm 22.1 S 20 24 1015.1 - - - - - - - - -
25/05:30pm 22.3 S 21 25 1015.1 - - - - - - - - -
25/05:00pm 22.2 S 21 24 1014.7 - - - - - - - - -
25/04:30pm 22.2 S 21 25 1014.5 - - - - - - - - -
25/04:00pm 22.5 S 22 25 1014.3 - - - - - - - - -
25/03:30pm 22.5 S 22 25 1014.3 - - - - - - - - -
25/03:00pm 22.4 S 21 23 1014.2 - - - - - - - - -
25/02:30pm 22.7 S 20 24 1014.4 - - - - - - - - -
25/02:00pm 22.6 S 17 21 1014.6 - - - - - - - - -
25/01:30pm 22.6 SSE 17 19 1015.0 - - - - - - - - -
25/01:00pm 22.6 S 18 20 1015.1 - - - - - - - - -
25/12:30pm 23.0 SSE 17 20 1015.4 - - - - - - - - -
25/12:00pm 22.9 SSE 17 19 1015.8 - - - - - - - - -
25/11:30am 22.8 S 20 23 1016.3 - - - - - - - - -
25/11:00am 22.8 S 20 24 1016.6 - - - - - - - - -
25/10:30am 22.9 S 20 23 1017.0 - - - - - - - - -
25/10:00am 22.9 SSE 20 23 1017.2 - - - - - - - - -
25/09:30am 22.8 SSE 19 24 1017.5 - - - - - - - - -
25/09:00am 22.8 SSE 18 22 1017.5 - - - - - - - - -
25/08:30am 22.7 SSE 18 21 1017.5 - - - - - - - - -
25/08:00am 22.6 SSE 19 21 1017.1 - - - - - - - - -
25/07:30am 22.5 SSE 17 21 1016.9 - - - - - - - - -

Other Formats:

Comma delimited format used in spreadsheet applications
http://www.bom.gov.au/fwo/IDQ60701/IDQ60701.94298.axf

JavaScript Object Notation format (JSON) in row-major order
http://www.bom.gov.au/fwo/IDQ60701/IDQ60701.94298.json